sensor_id;sensor_type;location;lat;lon;timestamp;pressure;altitude;pressure_sealevel;temperature;humidity
30338;BME280;17143;51.888;5.408;2022-10-15T00:07:15;100589.47;;;12.53;100.00
30338;BME280;17143;51.888;5.408;2022-10-15T00:22:17;100575.44;;;12.71;100.00
30338;BME280;17143;51.888;5.408;2022-10-15T00:37:19;100565.63;;;12.87;100.00
30338;BME280;17143;51.888;5.408;2022-10-15T00:52:24;100568.47;;;12.93;100.00
30338;BME280;17143;51.888;5.408;2022-10-15T01:07:26;100573.00;;;12.97;100.00
30338;BME280;17143;51.888;5.408;2022-10-15T01:22:38;100552.31;;;13.03;100.00
30338;BME280;17143;51.888;5.408;2022-10-15T01:37:47;100539.59;;;12.90;100.00
30338;BME280;17143;51.888;5.408;2022-10-15T01:52:52;100543.06;;;12.89;100.00
30338;BME280;17143;51.888;5.408;2022-10-15T02:07:59;100532.81;;;12.95;100.00
30338;BME280;17143;51.888;5.408;2022-10-15T02:23:12;100507.84;;;13.03;100.00
30338;BME280;17143;51.888;5.408;2022-10-15T02:38:20;100493.13;;;13.05;100.00
30338;BME280;17143;51.888;5.408;2022-10-15T02:53:24;100478.44;;;13.07;100.00
30338;BME280;17143;51.888;5.408;2022-10-15T03:08:27;100465.19;;;13.04;100.00
30338;BME280;17143;51.888;5.408;2022-10-15T03:23:29;100450.94;;;12.96;100.00
30338;BME280;17143;51.888;5.408;2022-10-15T03:38:46;100439.13;;;12.83;100.00
30338;BME280;17143;51.888;5.408;2022-10-15T03:53:49;100444.44;;;12.62;100.00
30338;BME280;17143;51.888;5.408;2022-10-15T04:08:51;100459.84;;;12.56;100.00
30338;BME280;17143;51.888;5.408;2022-10-15T04:23:59;100463.28;;;12.55;100.00
30338;BME280;17143;51.888;5.408;2022-10-15T04:39:10;100468.06;;;12.65;100.00
30338;BME280;17143;51.888;5.408;2022-10-15T04:54:16;100475.91;;;12.65;100.00
30338;BME280;17143;51.888;5.408;2022-10-15T05:09:33;100458.91;;;12.76;100.00
30338;BME280;17143;51.888;5.408;2022-10-15T05:24:35;100473.53;;;12.94;100.00
30338;BME280;17143;51.888;5.408;2022-10-15T05:39:45;100467.69;;;13.01;100.00
30338;BME280;17143;51.888;5.408;2022-10-15T05:54:47;100467.19;;;13.09;100.00
30338;BME280;17143;51.888;5.408;2022-10-15T06:09:49;100466.66;;;13.18;100.00
30338;BME280;17143;51.888;5.408;2022-10-15T06:24:52;100454.00;;;13.30;100.00
30338;BME280;17143;51.888;5.408;2022-10-15T06:39:56;100457.16;;;13.45;100.00
30338;BME280;17143;51.888;5.408;2022-10-15T06:54:59;100454.22;;;13.60;100.00
30338;BME280;17143;51.888;5.408;2022-10-15T07:10:01;100465.13;;;13.72;100.00
30338;BME280;17143;51.888;5.408;2022-10-15T07:25:03;100475.16;;;13.83;100.00
30338;BME280;17143;51.888;5.408;2022-10-15T07:40:06;100446.53;;;14.40;100.00
30338;BME280;17143;51.888;5.408;2022-10-15T07:55:09;100436.31;;;14.47;100.00
30338;BME280;17143;51.888;5.408;2022-10-15T08:10:11;100434.13;;;14.91;100.00
30338;BME280;17143;51.888;5.408;2022-10-15T08:25:14;100421.88;;;17.28;100.00
30338;BME280;17143;51.888;5.408;2022-10-15T08:40:23;100407.38;;;17.98;100.00
30338;BME280;17143;51.888;5.408;2022-10-15T08:55:28;100391.78;;;16.39;100.00
30338;BME280;17143;51.888;5.408;2022-10-15T09:10:36;100369.38;;;16.18;100.00
30338;BME280;17143;51.888;5.408;2022-10-15T09:25:40;100361.28;;;16.46;100.00
30338;BME280;17143;51.888;5.408;2022-10-15T09:40:57;100338.28;;;16.00;100.00
30338;BME280;17143;51.888;5.408;2022-10-15T09:56:06;100331.03;;;15.90;100.00
30338;BME280;17143;51.888;5.408;2022-10-15T10:11:11;100323.84;;;16.19;100.00
30338;BME280;17143;51.888;5.408;2022-10-15T10:26:13;100326.97;;;16.03;100.00
30338;BME280;17143;51.888;5.408;2022-10-15T10:41:15;100321.34;;;15.88;100.00
30338;BME280;17143;51.888;5.408;2022-10-15T10:56:21;100311.94;;;15.97;100.00
30338;BME280;17143;51.888;5.408;2022-10-15T11:11:28;100301.66;;;16.06;100.00
30338;BME280;17143;51.888;5.408;2022-10-15T11:26:47;100296.81;;;16.24;100.00
30338;BME280;17143;51.888;5.408;2022-10-15T11:41:54;100288.28;;;16.34;100.00
30338;BME280;17143;51.888;5.408;2022-10-15T11:57:04;100288.59;;;16.50;100.00
30338;BME280;17143;51.888;5.408;2022-10-15T12:12:14;100285.34;;;16.60;100.00
30338;BME280;17143;51.888;5.408;2022-10-15T12:27:28;100281.19;;;16.71;100.00
30338;BME280;17143;51.888;5.408;2022-10-15T12:42:33;100277.75;;;17.18;100.00
30338;BME280;17143;51.888;5.408;2022-10-15T12:58:04;100272.06;;;17.45;100.00
30338;BME280;17143;51.888;5.408;2022-10-15T13:13:12;100279.38;;;17.59;100.00
30338;BME280;17143;51.888;5.408;2022-10-15T13:28:30;100296.44;;;17.33;100.00
30338;BME280;17143;51.888;5.408;2022-10-15T13:43:33;100340.66;;;17.04;100.00
30338;BME280;17143;51.888;5.408;2022-10-15T13:58:36;100323.16;;;17.08;100.00
30338;BME280;17143;51.888;5.408;2022-10-15T14:13:44;100348.22;;;17.34;100.00
30338;BME280;17143;51.888;5.408;2022-10-15T14:28:50;100389.53;;;17.37;100.00
30338;BME280;17143;51.888;5.408;2022-10-15T14:44:05;100404.34;;;17.30;100.00
30338;BME280;17143;51.888;5.408;2022-10-15T14:59:18;100425.22;;;17.21;100.00
30338;BME280;17143;51.888;5.408;2022-10-15T15:14:23;100439.13;;;17.14;100.00
30338;BME280;17143;51.888;5.408;2022-10-15T15:29:26;100438.16;;;16.72;100.00
30338;BME280;17143;51.888;5.408;2022-10-15T15:44:28;100457.06;;;16.56;100.00
30338;BME280;17143;51.888;5.408;2022-10-15T15:59:30;100465.19;;;16.30;100.00
30338;BME280;17143;51.888;5.408;2022-10-15T16:14:32;100474.44;;;16.15;100.00
30338;BME280;17143;51.888;5.408;2022-10-15T16:29:34;100493.94;;;15.90;100.00
30338;BME280;17143;51.888;5.408;2022-10-15T16:44:36;100513.97;;;15.57;100.00
30338;BME280;17143;51.888;5.408;2022-10-15T16:59:38;100527.22;;;15.32;100.00
30338;BME280;17143;51.888;5.408;2022-10-15T17:14:39;100550.00;;;15.04;100.00
30338;BME280;17143;51.888;5.408;2022-10-15T17:29:41;100569.34;;;14.81;100.00
30338;BME280;17143;51.888;5.408;2022-10-15T17:44:43;100596.91;;;14.69;100.00
30338;BME280;17143;51.888;5.408;2022-10-15T17:59:45;100606.59;;;14.46;100.00
30338;BME280;17143;51.888;5.408;2022-10-15T18:14:47;100628.06;;;14.34;100.00
30338;BME280;17143;51.888;5.408;2022-10-15T18:29:53;100649.66;;;14.29;100.00
30338;BME280;17143;51.888;5.408;2022-10-15T18:44:55;100643.47;;;14.27;100.00
30338;BME280;17143;51.888;5.408;2022-10-15T18:59:57;100648.59;;;14.24;100.00
30338;BME280;17143;51.888;5.408;2022-10-15T19:14:59;100658.13;;;14.22;100.00
30338;BME280;17143;51.888;5.408;2022-10-15T19:30:01;100669.34;;;14.18;100.00
30338;BME280;17143;51.888;5.408;2022-10-15T19:45:03;100680.63;;;14.17;100.00
30338;BME280;17143;51.888;5.408;2022-10-15T20:00:07;100681.50;;;14.16;100.00
30338;BME280;17143;51.888;5.408;2022-10-15T20:15:14;100689.66;;;14.25;100.00
30338;BME280;17143;51.888;5.408;2022-10-15T20:30:16;100687.56;;;14.15;100.00
30338;BME280;17143;51.888;5.408;2022-10-15T20:45:18;100710.69;;;14.02;100.00
30338;BME280;17143;51.888;5.408;2022-10-15T21:00:20;100723.66;;;13.99;100.00
30338;BME280;17143;51.888;5.408;2022-10-15T21:15:22;100736.59;;;13.95;100.00
30338;BME280;17143;51.888;5.408;2022-10-15T21:30:24;100748.50;;;13.87;100.00
30338;BME280;17143;51.888;5.408;2022-10-15T21:45:26;100766.91;;;13.90;100.00
30338;BME280;17143;51.888;5.408;2022-10-15T22:00:28;100777.81;;;14.00;100.00
30338;BME280;17143;51.888;5.408;2022-10-15T22:15:31;100778.78;;;14.02;100.00
30338;BME280;17143;51.888;5.408;2022-10-15T22:30:34;100779.59;;;14.01;100.00
30338;BME280;17143;51.888;5.408;2022-10-15T22:45:36;100787.94;;;13.91;100.00
30338;BME280;17143;51.888;5.408;2022-10-15T23:00:38;100790.41;;;13.66;100.00
30338;BME280;17143;51.888;5.408;2022-10-15T23:15:40;100807.78;;;13.43;100.00
30338;BME280;17143;51.888;5.408;2022-10-15T23:30:42;100790.41;;;13.25;100.00
30338;BME280;17143;51.888;5.408;2022-10-15T23:45:44;100779.56;;;13.16;100.00
